Conti Salome — A8LL8 — position and weather

sailwx.info

Track history (hours):
 
Tides and Currents Weather Stations Pressure Air Temp Water Temp Dewpoint Dewpoint Depression Visibility Wind Speed Wind Dir Waves Ship Positions

Conti Salome

Last reported at 2018-Aug-18 18:00 UTC. Time now 2018-Aug-19 15:18 UTC.
Position N 14°12' W 092°36'.

Length 203 m; beam 28 m; draft 11 m.

Type: Ship. MMSI: 636017730.

Wind from 350 at 6 knots

Barometer 1015.0 mb
Air temperature 34.0 ° C
Visibility: greater than 5.4 NM
Dewpoint 34.0 ° C
Water temperature 31.0 ° C

Date/timePositionNaut miles runAvg speedWind from/ knotsBaromVisibWave heightAir tempDewpointWater temp
2018-Aug-18 18:00N 14°12' W 092°36'   350 / 61015.0 5.4 34.034.031.0
2018-Aug-13 18:00N 20°18' W 106°48'67918.9 330 / 101016.0 5.4 30.030.029.0
2018-Aug-12 06:00N 28°06' W 115°48'19219.5 280 / 101015.0 2.2 24.024.024.0
2018-Aug-11 20:08N 31°04' W 117°10'218.4
2018-Aug-11 20:00N 31°06' W 117°11'918.7
2018-Aug-11 19:30N 31°15' W 117°14'1419.3
2018-Aug-11 18:47N 31°28' W 117°20'519.4
2018-Aug-11 18:31N 31°33' W 117°22'1020.2
2018-Aug-11 18:00N 31°43' W 117°26'5433.7
2018-Aug-11 18:00N 31°48' W 117°24'714.0 360 / 101017.0 5.4 26.026.025.0
2018-Aug-11 17:30N 31°52' W 117°30'1019.5
2018-Aug-11 16:58N 32°02' W 117°34'919.3
2018-Aug-11 16:31N 32°10' W 117°38'917.9
2018-Aug-11 16:00N 32°19' W 117°41'510.5
2018-Aug-11 15:30N 32°24' W 117°43'4 7.9
2018-Aug-11 15:00N 32°27' W 117°45'4 7.7
2018-Aug-11 14:30N 32°31' W 117°47'714.1
2018-Aug-11 14:00N 32°38' W 117°50'816.8
2018-Aug-11 13:31N 32°46' W 117°53'816.6
2018-Aug-11 13:01N 32°53' W 117°57'816.6
2018-Aug-11 12:30N 33°01' W 117°60'816.5
2018-Aug-11 12:00N 33°09' W 118°03'816.5
2018-Aug-11 11:31N 33°17' W 118°06'816.9
2018-Aug-11 11:00N 33°25' W 118°09'816.9
2018-Aug-11 10:30N 33°33' W 118°12'612.9
2018-Aug-11 10:00N 33°39' W 118°12'4 8.4
2018-Aug-11 09:30N 33°43' W 118°11'2 3.3
2018-Aug-11 09:00N 33°45' W 118°13'0 0.1
2018-Aug-11 08:27N 33°45' W 118°13'0 0.0
2018-Aug-11 08:00N 33°45' W 118°13'0 0.0
2018-Aug-11 07:30N 33°45' W 118°13'0 0.0
2018-Aug-11 07:00N 33°45' W 118°13'0 0.0
2018-Aug-11 06:30N 33°45' W 118°13'0 0.0
2018-Aug-11 05:59N 33°45' W 118°13'0 0.0
2018-Aug-11 05:29N 33°45' W 118°13'0 0.0
2018-Aug-11 04:59N 33°45' W 118°13'0 0.0
2018-Aug-11 04:29N 33°45' W 118°13'0 0.0
2018-Aug-11 03:59N 33°45' W 118°13'0 0.0
2018-Aug-11 03:28N 33°45' W 118°13'0 0.0
2018-Aug-11 02:58N 33°45' W 118°13'0 0.0
2018-Aug-11 02:28N 33°45' W 118°13'0 0.0
2018-Aug-11 01:58N 33°45' W 118°13'0 0.0
2018-Aug-11 01:30N 33°45' W 118°13'0 0.0
2018-Aug-11 01:00N 33°45' W 118°13'0 0.0
2018-Aug-11 00:30N 33°45' W 118°13'0 0.0
2018-Aug-11 00:00N 33°45' W 118°13'0 0.0
2018-Aug-10 23:30N 33°45' W 118°13'0 0.0
2018-Aug-10 22:59N 33°45' W 118°13'0 0.0
2018-Aug-10 22:29N 33°45' W 118°13'0 0.0
2018-Aug-10 21:59N 33°45' W 118°13'0 0.0
2018-Aug-10 21:30N 33°45' W 118°13'0 0.0
2018-Aug-10 20:59N 33°45' W 118°13'0 0.0
2018-Aug-10 20:29N 33°45' W 118°13'1 2.7
2018-Aug-10 20:00N 33°44' W 118°14'0 0.1
2018-Aug-10 19:30N 33°44' W 118°14'0 0.0
2018-Aug-10 19:00N 33°44' W 118°14'0 0.0
2018-Aug-10 18:30N 33°44' W 118°14'0 0.2
2018-Aug-10 17:59N 33°44' W 118°14'0 0.1
2018-Aug-10 17:29N 33°44' W 118°14'0 0.0
2018-Aug-10 16:56N 33°44' W 118°14'0 0.0
2018-Aug-10 16:29N 33°44' W 118°14'0 0.0
2018-Aug-10 15:58N 33°44' W 118°14'0 0.0
2018-Aug-10 15:28N 33°44' W 118°14'0 0.1
2018-Aug-10 14:58N 33°44' W 118°14'0 0.2
2018-Aug-10 14:28N 33°44' W 118°14'0 0.1
2018-Aug-10 13:58N 33°44' W 118°14'0 0.1
2018-Aug-10 13:30N 33°44' W 118°14'0 0.0
2018-Aug-10 13:00N 33°44' W 118°14'0 0.0
2018-Aug-10 12:30N 33°44' W 118°14'0 0.1
2018-Aug-10 12:00N 33°44' W 118°14'0 0.1
2018-Aug-10 11:29N 33°44' W 118°14'0 0.0
2018-Aug-10 10:59N 33°44' W 118°14'0 0.0
2018-Aug-10 10:29N 33°44' W 118°14'0 0.0
2018-Aug-10 09:59N 33°44' W 118°14'0 0.0
2018-Aug-10 09:29N 33°44' W 118°14'0 0.0
2018-Aug-10 08:58N 33°44' W 118°14'0 0.1
2018-Aug-10 08:28N 33°44' W 118°14'0 0.0
2018-Aug-10 07:58N 33°44' W 118°14'0 0.0
2018-Aug-10 07:28N 33°44' W 118°14'0 0.0
2018-Aug-10 06:55N 33°44' W 118°14'0 0.1
2018-Aug-10 06:30N 33°44' W 118°14'0 0.0
2018-Aug-10 06:01N 33°44' W 118°14'3 5.5
2018-Aug-10 05:31N 33°42' W 118°11'4 7.7
2018-Aug-10 05:00N 33°38' W 118°12'4 7.1
2018-Aug-10 04:31N 33°36' W 118°15'510.3
2018-Aug-10 04:00N 33°37' W 118°21'713.8
2018-Aug-10 03:30N 33°40' W 118°29'815.7
2018-Aug-10 03:00N 33°44' W 118°37'917.2
2018-Aug-10 02:30N 33°48' W 118°46'917.6
2018-Aug-10 02:00N 33°52' W 118°55'917.6
2018-Aug-10 01:30N 33°57' W 119°04'917.6
2018-Aug-10 01:00N 34°02' W 119°12'712.6
2018-Aug-10 00:29N 34°09' W 119°13'0 0.5
2018-Aug-09 23:58N 34°09' W 119°12'0 0.0
2018-Aug-09 23:28N 34°09' W 119°12'0 0.0
2018-Aug-09 22:57N 34°09' W 119°12'0 0.0
2018-Aug-09 22:18N 34°09' W 119°12'0 0.0
2018-Aug-09 21:51N 34°09' W 119°12'0 0.0
2018-Aug-09 21:30N 34°09' W 119°12'0 0.0
2018-Aug-09 20:59N 34°09' W 119°12'0 0.0
2018-Aug-09 20:29N 34°09' W 119°12'0 0.0
2018-Aug-09 19:59N 34°09' W 119°12'0 0.0
2018-Aug-09 18:56N 34°09' W 119°12'0 0.0
2018-Aug-09 18:28N 34°09' W 119°12'0 0.0
2018-Aug-09 17:58N 34°09' W 119°12'0 0.0
2018-Aug-09 17:28N 34°09' W 119°12'0 0.0
2018-Aug-09 16:55N 34°09' W 119°12'0 0.0
2018-Aug-09 16:28N 34°09' W 119°12'0 0.0
2018-Aug-09 16:00N 34°09' W 119°12'0 0.0
2018-Aug-09 15:30N 34°09' W 119°12'0 0.0
2018-Aug-09 15:00N 34°09' W 119°12'0 0.0
2018-Aug-09 14:24N 34°09' W 119°12'0 0.0
2018-Aug-09 13:59N 34°09' W 119°12'0 0.0
2018-Aug-09 13:29N 34°09' W 119°12'0 0.0
2018-Aug-09 12:44N 34°09' W 119°12'0 0.0
2018-Aug-09 12:14N 34°09' W 119°12'0 0.0
2018-Aug-09 11:59N 34°09' W 119°12'0 0.0
2018-Aug-09 11:25N 34°09' W 119°12'0 0.0
2018-Aug-09 10:40N 34°09' W 119°12'0 0.0
2018-Aug-09 10:28N 34°09' W 119°12'0 0.0
2018-Aug-09 09:46N 34°09' W 119°12'0 0.0
2018-Aug-09 09:28N 34°09' W 119°12'0 0.0
2018-Aug-09 08:51N 34°09' W 119°12'0 0.0
2018-Aug-09 08:30N 34°09' W 119°12'0 0.0
2018-Aug-09 08:00N 34°09' W 119°12'0 0.0
2018-Aug-09 07:18N 34°09' W 119°12'0 0.0
2018-Aug-09 06:56N 34°09' W 119°12'0 0.0
2018-Aug-09 06:26N 34°09' W 119°12'0 0.0
2018-Aug-09 05:59N 34°09' W 119°12'0 0.0
2018-Aug-09 05:26N 34°09' W 119°12'0 0.0
2018-Aug-09 04:59N 34°09' W 119°12'0 0.0
2018-Aug-09 04:28N 34°09' W 119°12'0 0.0
2018-Aug-09 03:58N 34°09' W 119°12'0 0.0
2018-Aug-09 03:19N 34°09' W 119°12'0 0.0
2018-Aug-09 02:55N 34°09' W 119°12'0 0.0
2018-Aug-09 02:24N 34°09' W 119°12'0 0.0
2018-Aug-09 02:00N 34°09' W 119°12'0 0.0
2018-Aug-09 01:30N 34°09' W 119°12'0 0.0
2018-Aug-09 01:00N 34°09' W 119°12'0 0.0
2018-Aug-09 00:30N 34°09' W 119°12'0 0.0
2018-Aug-08 23:53N 34°09' W 119°12'0 0.0
2018-Aug-08 23:29N 34°09' W 119°12'0 0.0
2018-Aug-08 22:53N 34°09' W 119°12'0 0.0
2018-Aug-08 21:56N 34°09' W 119°12'0 0.0
2018-Aug-08 21:07N 34°09' W 119°12'0 0.0
2018-Aug-08 20:58N 34°09' W 119°12'0 0.0
2018-Aug-08 19:40N 34°09' W 119°12'0 0.0
2018-Aug-08 19:24N 34°09' W 119°12'0 0.0
2018-Aug-08 19:00N 34°09' W 119°12'0 0.0
2018-Aug-08 18:27N 34°09' W 119°12'0 0.0
2018-Aug-08 18:00N 34°09' W 119°12'  
Track history (hours):
 
Tides and Currents Weather Stations Pressure Air Temp Water Temp Dewpoint Dewpoint Depression Visibility Wind Speed Wind Dir Waves Ship Positions

Conti Salome

Last reported at 2018-Aug-18 18:00 UTC. Time now 2018-Aug-19 15:18 UTC.
Position N 14°12' W 092°36'.

Length 203 m; beam 28 m; draft 11 m.

Type: Ship. MMSI: 636017730.

Wind from 350 at 6 knots

Barometer 1015.0 mb
Air temperature 34.0 ° C
Visibility: greater than 5.4 NM
Dewpoint 34.0 ° C
Water temperature 31.0 ° C

Date/timePositionNaut miles runAvg speedWind from/ knotsBaromVisibWave heightAir tempDewpointWater temp
2018-Aug-18 18:00N 14°12' W 092°36'   350 / 61015.0 5.4 34.034.031.0
2018-Aug-13 18:00N 20°18' W 106°48'67918.9 330 / 101016.0 5.4 30.030.029.0
2018-Aug-12 06:00N 28°06' W 115°48'19219.5 280 / 101015.0 2.2 24.024.024.0
2018-Aug-11 20:08N 31°04' W 117°10'218.4
2018-Aug-11 20:00N 31°06' W 117°11'918.7
2018-Aug-11 19:30N 31°15' W 117°14'1419.3
2018-Aug-11 18:47N 31°28' W 117°20'519.4
2018-Aug-11 18:31N 31°33' W 117°22'1020.2
2018-Aug-11 18:00N 31°43' W 117°26'5433.7
2018-Aug-11 18:00N 31°48' W 117°24'714.0 360 / 101017.0 5.4 26.026.025.0
2018-Aug-11 17:30N 31°52' W 117°30'1019.5
2018-Aug-11 16:58N 32°02' W 117°34'919.3
2018-Aug-11 16:31N 32°10' W 117°38'917.9
2018-Aug-11 16:00N 32°19' W 117°41'510.5
2018-Aug-11 15:30N 32°24' W 117°43'4 7.9
2018-Aug-11 15:00N 32°27' W 117°45'4 7.7
2018-Aug-11 14:30N 32°31' W 117°47'714.1
2018-Aug-11 14:00N 32°38' W 117°50'816.8
2018-Aug-11 13:31N 32°46' W 117°53'816.6
2018-Aug-11 13:01N 32°53' W 117°57'816.6
2018-Aug-11 12:30N 33°01' W 117°60'816.5
2018-Aug-11 12:00N 33°09' W 118°03'816.5
2018-Aug-11 11:31N 33°17' W 118°06'816.9
2018-Aug-11 11:00N 33°25' W 118°09'816.9
2018-Aug-11 10:30N 33°33' W 118°12'612.9
2018-Aug-11 10:00N 33°39' W 118°12'4 8.4
2018-Aug-11 09:30N 33°43' W 118°11'2 3.3
2018-Aug-11 09:00N 33°45' W 118°13'0 0.1
2018-Aug-11 08:27N 33°45' W 118°13'0 0.0
2018-Aug-11 08:00N 33°45' W 118°13'0 0.0
2018-Aug-11 07:30N 33°45' W 118°13'0 0.0
2018-Aug-11 07:00N 33°45' W 118°13'0 0.0
2018-Aug-11 06:30N 33°45' W 118°13'0 0.0
2018-Aug-11 05:59N 33°45' W 118°13'0 0.0
2018-Aug-11 05:29N 33°45' W 118°13'0 0.0
2018-Aug-11 04:59N 33°45' W 118°13'0 0.0
2018-Aug-11 04:29N 33°45' W 118°13'0 0.0
2018-Aug-11 03:59N 33°45' W 118°13'0 0.0
2018-Aug-11 03:28N 33°45' W 118°13'0 0.0
2018-Aug-11 02:58N 33°45' W 118°13'0 0.0
2018-Aug-11 02:28N 33°45' W 118°13'0 0.0
2018-Aug-11 01:58N 33°45' W 118°13'0 0.0
2018-Aug-11 01:30N 33°45' W 118°13'0 0.0
2018-Aug-11 01:00N 33°45' W 118°13'0 0.0
2018-Aug-11 00:30N 33°45' W 118°13'0 0.0
2018-Aug-11 00:00N 33°45' W 118°13'0 0.0
2018-Aug-10 23:30N 33°45' W 118°13'0 0.0
2018-Aug-10 22:59N 33°45' W 118°13'0 0.0
2018-Aug-10 22:29N 33°45' W 118°13'0 0.0
2018-Aug-10 21:59N 33°45' W 118°13'0 0.0
2018-Aug-10 21:30N 33°45' W 118°13'0 0.0
2018-Aug-10 20:59N 33°45' W 118°13'0 0.0
2018-Aug-10 20:29N 33°45' W 118°13'1 2.7
2018-Aug-10 20:00N 33°44' W 118°14'0 0.1
2018-Aug-10 19:30N 33°44' W 118°14'0 0.0
2018-Aug-10 19:00N 33°44' W 118°14'0 0.0
2018-Aug-10 18:30N 33°44' W 118°14'0 0.2
2018-Aug-10 17:59N 33°44' W 118°14'0 0.1
2018-Aug-10 17:29N 33°44' W 118°14'0 0.0
2018-Aug-10 16:56N 33°44' W 118°14'0 0.0
2018-Aug-10 16:29N 33°44' W 118°14'0 0.0
2018-Aug-10 15:58N 33°44' W 118°14'0 0.0
2018-Aug-10 15:28N 33°44' W 118°14'0 0.1
2018-Aug-10 14:58N 33°44' W 118°14'0 0.2
2018-Aug-10 14:28N 33°44' W 118°14'0 0.1
2018-Aug-10 13:58N 33°44' W 118°14'0 0.1
2018-Aug-10 13:30N 33°44' W 118°14'0 0.0
2018-Aug-10 13:00N 33°44' W 118°14'0 0.0
2018-Aug-10 12:30N 33°44' W 118°14'0 0.1
2018-Aug-10 12:00N 33°44' W 118°14'0 0.1
2018-Aug-10 11:29N 33°44' W 118°14'0 0.0
2018-Aug-10 10:59N 33°44' W 118°14'0 0.0
2018-Aug-10 10:29N 33°44' W 118°14'0 0.0
2018-Aug-10 09:59N 33°44' W 118°14'0 0.0
2018-Aug-10 09:29N 33°44' W 118°14'0 0.0
2018-Aug-10 08:58N 33°44' W 118°14'0 0.1
2018-Aug-10 08:28N 33°44' W 118°14'0 0.0
2018-Aug-10 07:58N 33°44' W 118°14'0 0.0
2018-Aug-10 07:28N 33°44' W 118°14'0 0.0
2018-Aug-10 06:55N 33°44' W 118°14'0 0.1
2018-Aug-10 06:30N 33°44' W 118°14'0 0.0
2018-Aug-10 06:01N 33°44' W 118°14'3 5.5
2018-Aug-10 05:31N 33°42' W 118°11'4 7.7
2018-Aug-10 05:00N 33°38' W 118°12'4 7.1
2018-Aug-10 04:31N 33°36' W 118°15'510.3
2018-Aug-10 04:00N 33°37' W 118°21'713.8
2018-Aug-10 03:30N 33°40' W 118°29'815.7
2018-Aug-10 03:00N 33°44' W 118°37'917.2
2018-Aug-10 02:30N 33°48' W 118°46'917.6
2018-Aug-10 02:00N 33°52' W 118°55'917.6
2018-Aug-10 01:30N 33°57' W 119°04'917.6
2018-Aug-10 01:00N 34°02' W 119°12'712.6
2018-Aug-10 00:29N 34°09' W 119°13'0 0.5
2018-Aug-09 23:58N 34°09' W 119°12'0 0.0
2018-Aug-09 23:28N 34°09' W 119°12'0 0.0
2018-Aug-09 22:57N 34°09' W 119°12'0 0.0
2018-Aug-09 22:18N 34°09' W 119°12'0 0.0
2018-Aug-09 21:51N 34°09' W 119°12'0 0.0
2018-Aug-09 21:30N 34°09' W 119°12'0 0.0
2018-Aug-09 20:59N 34°09' W 119°12'0 0.0
2018-Aug-09 20:29N 34°09' W 119°12'0 0.0
2018-Aug-09 19:59N 34°09' W 119°12'0 0.0
2018-Aug-09 18:56N 34°09' W 119°12'0 0.0
2018-Aug-09 18:28N 34°09' W 119°12'0 0.0
2018-Aug-09 17:58N 34°09' W 119°12'0 0.0
2018-Aug-09 17:28N 34°09' W 119°12'0 0.0
2018-Aug-09 16:55N 34°09' W 119°12'0 0.0
2018-Aug-09 16:28N 34°09' W 119°12'0 0.0
2018-Aug-09 16:00N 34°09' W 119°12'0 0.0
2018-Aug-09 15:30N 34°09' W 119°12'0 0.0
2018-Aug-09 15:00N 34°09' W 119°12'0 0.0
2018-Aug-09 14:24N 34°09' W 119°12'0 0.0
2018-Aug-09 13:59N 34°09' W 119°12'0 0.0
2018-Aug-09 13:29N 34°09' W 119°12'0 0.0
2018-Aug-09 12:44N 34°09' W 119°12'0 0.0
2018-Aug-09 12:14N 34°09' W 119°12'0 0.0
2018-Aug-09 11:59N 34°09' W 119°12'0 0.0
2018-Aug-09 11:25N 34°09' W 119°12'0 0.0
2018-Aug-09 10:40N 34°09' W 119°12'0 0.0
2018-Aug-09 10:28N 34°09' W 119°12'0 0.0
2018-Aug-09 09:46N 34°09' W 119°12'0 0.0
2018-Aug-09 09:28N 34°09' W 119°12'0 0.0
2018-Aug-09 08:51N 34°09' W 119°12'0 0.0
2018-Aug-09 08:30N 34°09' W 119°12'0 0.0
2018-Aug-09 08:00N 34°09' W 119°12'0 0.0
2018-Aug-09 07:18N 34°09' W 119°12'0 0.0
2018-Aug-09 06:56N 34°09' W 119°12'0 0.0
2018-Aug-09 06:26N 34°09' W 119°12'0 0.0
2018-Aug-09 05:59N 34°09' W 119°12'0 0.0
2018-Aug-09 05:26N 34°09' W 119°12'0 0.0
2018-Aug-09 04:59N 34°09' W 119°12'0 0.0
2018-Aug-09 04:28N 34°09' W 119°12'0 0.0
2018-Aug-09 03:58N 34°09' W 119°12'0 0.0
2018-Aug-09 03:19N 34°09' W 119°12'0 0.0
2018-Aug-09 02:55N 34°09' W 119°12'0 0.0
2018-Aug-09 02:24N 34°09' W 119°12'0 0.0
2018-Aug-09 02:00N 34°09' W 119°12'0 0.0
2018-Aug-09 01:30N 34°09' W 119°12'0 0.0
2018-Aug-09 01:00N 34°09' W 119°12'0 0.0
2018-Aug-09 00:30N 34°09' W 119°12'0 0.0
2018-Aug-08 23:53N 34°09' W 119°12'0 0.0
2018-Aug-08 23:29N 34°09' W 119°12'0 0.0
2018-Aug-08 22:53N 34°09' W 119°12'0 0.0
2018-Aug-08 21:56N 34°09' W 119°12'0 0.0
2018-Aug-08 21:07N 34°09' W 119°12'0 0.0
2018-Aug-08 20:58N 34°09' W 119°12'0 0.0
2018-Aug-08 19:40N 34°09' W 119°12'0 0.0
2018-Aug-08 19:24N 34°09' W 119°12'0 0.0
2018-Aug-08 19:00N 34°09' W 119°12'0 0.0
2018-Aug-08 18:27N 34°09' W 119°12'0 0.0
2018-Aug-08 18:00N 34°09' W 119°12'  

Dump ship's entire track history